createdAt,value
2019-04-27T00:02:23.049Z,97480.73
2019-04-27T00:05:10.509Z,97476.39
2019-04-27T00:07:51.474Z,97470.96
2019-04-27T00:10:30.214Z,97466.90
2019-04-27T00:13:01.183Z,97467.44
2019-04-27T00:15:49.077Z,97463.06
2019-04-27T00:18:29.159Z,97464.41
2019-04-27T00:21:06.089Z,97467.16
2019-04-27T00:23:34.003Z,97463.89
2019-04-27T00:26:00.700Z,97455.76
2019-04-27T00:28:27.224Z,97449.79
2019-04-27T00:30:53.834Z,97450.61
2019-04-27T00:33:20.475Z,97445.99
2019-04-27T00:35:53.904Z,97446.27
2019-04-27T00:38:41.305Z,97446.00
2019-04-27T00:41:10.167Z,97438.11
2019-04-27T00:43:36.842Z,97440.81
2019-04-27T00:46:04.076Z,97443.53
2019-04-27T00:48:30.899Z,97444.08
2019-04-27T00:50:57.788Z,97442.74
2019-04-27T00:53:24.347Z,97437.08
2019-04-27T00:56:15.287Z,97444.11
2019-04-27T00:59:00.286Z,97435.67
2019-04-27T01:01:33.405Z,97434.86
2019-04-27T01:04:23.688Z,97439.73
2019-04-27T01:06:50.351Z,97434.59
2019-04-27T01:09:17.397Z,97438.66
2019-04-27T01:11:43.916Z,97442.72
2019-04-27T01:14:10.452Z,97444.62
2019-04-27T01:16:36.989Z,97445.74
2019-04-27T01:19:03.710Z,97445.74
2019-04-27T01:21:30.355Z,97445.20
2019-04-27T01:23:58.784Z,97444.35
2019-04-27T01:26:52.320Z,97443.00
2019-04-27T01:29:19.996Z,97439.78
2019-04-27T01:31:46.523Z,97443.31
2019-04-27T01:34:13.299Z,97443.86
2019-04-27T01:36:40.040Z,97445.74
2019-04-27T01:39:10.638Z,97446.52
2019-04-27T01:41:39.012Z,97444.35
2019-04-27T01:44:05.617Z,97443.84
2019-04-27T01:46:32.144Z,97435.19
2019-04-27T01:48:59.132Z,97447.06
2019-04-27T01:51:25.873Z,97442.22
2019-04-27T01:53:52.504Z,97447.06
2019-04-27T01:56:19.584Z,97451.12
2019-04-27T01:58:46.169Z,97446.24
2019-04-27T02:01:34.344Z,97449.52
2019-04-27T02:04:19.211Z,97449.25
2019-04-27T02:06:48.753Z,97446.79
2019-04-27T02:09:18.781Z,97442.77
2019-04-27T02:11:45.483Z,97449.28
2019-04-27T02:14:12.106Z,97447.92
2019-04-27T02:16:39.226Z,97443.86
2019-04-27T02:19:05.872Z,97444.12
2019-04-27T02:21:32.535Z,97444.12
2019-04-27T02:23:59.819Z,97437.35
2019-04-27T02:26:26.582Z,97436.00
2019-04-27T02:29:11.244Z,97434.38
2019-04-27T02:31:46.039Z,97434.92
2019-04-27T02:34:15.322Z,97430.05
2019-04-27T02:36:41.838Z,97430.05
2019-04-27T02:39:09.511Z,97431.13
2019-04-27T02:41:36.662Z,97429.77
2019-04-27T02:44:17.207Z,97427.07
2019-04-27T02:46:43.857Z,97427.92
2019-04-27T02:49:10.823Z,97422.50
2019-04-27T02:51:59.872Z,97427.89
2019-04-27T02:54:26.526Z,97431.98
2019-04-27T02:56:53.178Z,97430.87
2019-04-27T02:59:20.044Z,97433.34
2019-04-27T03:01:53.646Z,97441.16
2019-04-27T03:04:20.480Z,97437.09
2019-04-27T03:06:47.145Z,97432.77
2019-04-27T03:09:13.809Z,97444.69
2019-04-27T03:11:40.427Z,97441.16
2019-04-27T03:14:32.564Z,97442.80
2019-04-27T03:17:22.718Z,97445.23
2019-04-27T03:19:59.545Z,97446.31
2019-04-27T03:22:31.030Z,97444.42
2019-04-27T03:25:20.232Z,97450.11
2019-04-27T03:27:50.293Z,97446.89
2019-04-27T03:30:16.703Z,97448.80
2019-04-27T03:32:43.774Z,97440.40
2019-04-27T03:35:12.723Z,97444.19
2019-04-27T03:37:40.453Z,97438.77
2019-04-27T03:40:10.089Z,97447.72
2019-04-27T03:42:40.309Z,97430.91
2019-04-27T03:45:10.444Z,97439.05
2019-04-27T03:47:36.120Z,97432.81
2019-04-27T03:50:03.638Z,97433.89
2019-04-27T03:52:39.744Z,97425.49
2019-04-27T03:55:19.813Z,97426.85
2019-04-27T03:57:52.713Z,97426.58
2019-04-27T04:00:21.711Z,97426.58
2019-04-27T04:02:50.216Z,97426.04
2019-04-27T04:05:16.905Z,97425.77
2019-04-27T04:07:43.650Z,97432.00
2019-04-27T04:10:10.940Z,97434.70
2019-04-27T04:12:56.022Z,97436.91
2019-04-27T04:15:29.793Z,97442.05
2019-04-27T04:17:56.493Z,97438.53
2019-04-27T04:20:23.224Z,97446.66
2019-04-27T04:22:51.486Z,97448.53
2019-04-27T04:25:20.002Z,97442.59
2019-04-27T04:27:46.621Z,97448.28
2019-04-27T04:30:13.260Z,97440.70
2019-04-27T04:32:39.893Z,97445.82
2019-04-27T04:35:16.542Z,97448.28
2019-04-27T04:37:43.156Z,97449.09
2019-04-27T04:40:09.903Z,97456.41
2019-04-27T04:42:42.511Z,97450.98
2019-04-27T04:45:27.342Z,97451.27
2019-04-27T04:47:59.484Z,97451.53
2019-04-27T04:50:25.593Z,97456.95
2019-04-27T04:52:52.251Z,97455.86
2019-04-27T04:55:20.365Z,97453.15
2019-04-27T04:57:49.305Z,97458.84
2019-04-27T05:00:16.173Z,97457.22
2019-04-27T05:02:42.696Z,97453.97
2019-04-27T05:05:09.524Z,97463.72
2019-04-27T05:07:36.072Z,97459.66
2019-04-27T05:10:03.657Z,97465.89
2019-04-27T05:12:30.279Z,97466.98
2019-04-27T05:14:56.911Z,97469.69
2019-04-27T05:17:23.613Z,97471.31
2019-04-27T05:19:50.970Z,97469.14
2019-04-27T05:22:19.407Z,97469.41
2019-04-27T05:24:49.387Z,97467.79
2019-04-27T05:27:15.863Z,97468.87
2019-04-27T05:29:42.516Z,97470.77
2019-04-27T05:32:11.813Z,97468.88
2019-04-27T05:34:39.443Z,97464.81
2019-04-27T05:37:06.109Z,97470.22
2019-04-27T05:39:32.730Z,97469.95
2019-04-27T05:41:59.777Z,97474.56
2019-04-27T05:44:52.553Z,97474.02
2019-04-27T05:47:43.348Z,97474.55
2019-04-27T05:50:18.375Z,97473.47
2019-04-27T05:52:44.007Z,97478.07
2019-04-27T05:55:10.639Z,97474.55
2019-04-27T05:57:39.014Z,97477.53
2019-04-27T06:00:06.560Z,97478.06
2019-04-27T06:02:33.237Z,97472.64
2019-04-27T06:05:00.186Z,97468.86
2019-04-27T06:07:27.102Z,97464.53
2019-04-27T06:09:53.672Z,97466.69
2019-04-27T06:12:20.441Z,97463.45
2019-04-27T06:14:46.981Z,97466.16
2019-04-27T06:17:13.789Z,97471.04
2019-04-27T06:19:40.375Z,97468.06
2019-04-27T06:22:07.025Z,97468.06
2019-04-27T06:24:33.743Z,97474.81
2019-04-27T06:27:00.326Z,97471.02
2019-04-27T06:29:27.018Z,97467.77
2019-04-27T06:31:53.553Z,97468.58
2019-04-27T06:34:20.244Z,97472.10
2019-04-27T06:36:48.594Z,97464.52
2019-04-27T06:39:15.331Z,97465.33
2019-04-27T06:41:41.904Z,97464.52
2019-04-27T06:44:11.028Z,97460.72
2019-04-27T06:46:38.531Z,97463.43
2019-04-27T06:49:05.317Z,97467.77
2019-04-27T06:51:32.048Z,97464.52
2019-04-27T06:53:59.475Z,97472.91
2019-04-27T06:56:26.292Z,97468.27
2019-04-27T07:02:21.443Z,97468.54
2019-04-27T07:04:49.021Z,97472.59
2019-04-27T07:07:15.722Z,97473.67
2019-04-27T07:09:42.255Z,97468.80
2019-04-27T07:12:09.055Z,97470.96
2019-04-27T07:14:35.580Z,97474.99
2019-04-27T07:17:02.701Z,97478.00
2019-04-27T07:19:29.382Z,97473.65
2019-04-27T07:21:56.154Z,97474.47
2019-04-27T07:24:23.047Z,97478.53
2019-04-27T07:26:49.916Z,97476.08
2019-04-27T07:29:16.685Z,97476.88
2019-04-27T07:31:43.202Z,97478.47
2019-04-27T07:34:09.924Z,97483.06
2019-04-27T07:36:36.618Z,97481.14
2019-04-27T07:39:05.494Z,97483.28
2019-04-27T07:41:32.340Z,97481.59
2019-04-27T07:44:31.929Z,97476.95
2019-04-27T07:47:16.180Z,97482.06
2019-04-27T07:49:42.870Z,97477.65
2019-04-27T07:52:09.732Z,97481.44
2019-04-27T07:54:38.475Z,97471.66
2019-04-27T07:57:05.658Z,97474.14
2019-04-27T07:59:33.624Z,97473.34
2019-04-27T08:02:00.298Z,97478.80
2019-04-27T08:04:28.435Z,97488.59
2019-04-27T08:06:55.408Z,97486.09
2019-04-27T08:09:22.279Z,97481.99
2019-04-27T08:11:49.168Z,97477.63
2019-04-27T08:14:15.694Z,97482.50
2019-04-27T08:16:42.547Z,97479.54
2019-04-27T08:19:09.879Z,97480.88
2019-04-27T08:21:43.364Z,97476.27
2019-04-27T08:24:06.231Z,97478.45
2019-04-27T08:26:49.967Z,97471.93
2019-04-27T08:29:34.831Z,97470.02
2019-04-27T08:32:09.695Z,97476.55
2019-04-27T08:34:37.351Z,97473.82
2019-04-27T08:37:08.741Z,97474.11
2019-04-27T08:39:35.846Z,97472.50
2019-04-27T08:42:04.073Z,97475.49
2019-04-27T08:44:31.758Z,97474.92
2019-04-27T08:46:59.768Z,97469.98
2019-04-27T08:49:26.736Z,97475.33
2019-04-27T08:51:59.193Z,97472.84
2019-04-27T08:54:21.922Z,97473.88
2019-04-27T08:56:49.590Z,97459.98
2019-04-27T08:59:16.583Z,97468.06
2019-04-27T09:01:43.713Z,97468.26
2019-04-27T09:04:11.287Z,97459.16
2019-04-27T09:06:40.193Z,97453.77
2019-04-27T09:09:12.350Z,97447.62
2019-04-27T09:11:53.622Z,97453.87
2019-04-27T09:14:29.510Z,97445.78
2019-04-27T09:17:15.779Z,97438.48
2019-04-27T09:20:05.033Z,97439.40
2019-04-27T09:22:31.857Z,97436.34
2019-04-27T09:25:01.454Z,97440.28
2019-04-27T09:27:29.006Z,97446.65
2019-04-27T09:29:55.915Z,97441.50
2019-04-27T09:32:22.457Z,97441.21
2019-04-27T09:34:49.076Z,97441.50
2019-04-27T09:37:16.251Z,97442.25
2019-04-27T09:39:45.880Z,97440.42
2019-04-27T09:42:12.810Z,97435.90
2019-04-27T09:44:39.459Z,97432.73
2019-04-27T09:47:06.361Z,97429.42
2019-04-27T09:49:33.401Z,97433.17
2019-04-27T09:52:00.680Z,97425.40
2019-04-27T09:54:27.366Z,97426.78
2019-04-27T09:56:56.007Z,97433.66
2019-04-27T09:59:22.837Z,97422.63
2019-04-27T10:01:49.471Z,97423.95
2019-04-27T10:04:17.476Z,97423.83
2019-04-27T10:06:44.255Z,97414.48
2019-04-27T10:09:10.978Z,97419.97
2019-04-27T10:11:37.668Z,97413.39
2019-04-27T10:14:05.924Z,97416.68
2019-04-27T10:16:33.007Z,97411.78
2019-04-27T10:18:59.549Z,97417.23
2019-04-27T10:21:26.460Z,97426.19
2019-04-27T10:23:53.235Z,97420.36
2019-04-27T10:26:19.921Z,97418.99
2019-04-27T10:28:46.473Z,97419.89
2019-04-27T10:31:13.217Z,97409.28
2019-04-27T10:33:39.893Z,97416.91
2019-04-27T10:36:07.891Z,97413.42
2019-04-27T10:38:35.977Z,97416.31
2019-04-27T10:41:02.800Z,97415.20
2019-04-27T10:43:29.432Z,97414.34
2019-04-27T10:45:56.665Z,97424.77
2019-04-27T10:48:23.363Z,97411.30
2019-04-27T10:50:50.028Z,97409.28
2019-04-27T10:53:16.996Z,97412.58
2019-04-27T10:55:47.161Z,97406.58
2019-04-27T10:58:14.721Z,97393.56
2019-04-27T11:00:47.179Z,97386.27
2019-04-27T11:03:16.758Z,97389.20
2019-04-27T11:06:06.415Z,97381.53
2019-04-27T11:08:33.233Z,97375.94
2019-04-27T11:11:00.103Z,97371.50
2019-04-27T11:13:26.639Z,97374.62
2019-04-27T11:15:59.612Z,97360.69
2019-04-27T11:18:26.577Z,97350.30
2019-04-27T11:20:53.120Z,97348.98
2019-04-27T11:23:19.806Z,97355.33
2019-04-27T11:25:47.118Z,97349.20
2019-04-27T11:28:15.561Z,97345.09
2019-04-27T11:30:42.374Z,97334.44
2019-04-27T11:33:09.129Z,97343.48
2019-04-27T11:35:48.140Z,97331.85
2019-04-27T11:38:16.615Z,97324.98
2019-04-27T11:40:43.491Z,97327.25
2019-04-27T11:43:10.516Z,97319.10
2019-04-27T11:45:37.169Z,97312.56
2019-04-27T11:48:05.678Z,97306.92
2019-04-27T11:50:32.476Z,97298.15
2019-04-27T11:52:59.234Z,97295.19
2019-04-27T11:55:27.848Z,97301.69
2019-04-27T11:57:55.977Z,97294.41
2019-04-27T12:00:25.387Z,97283.09
2019-04-27T12:02:52.037Z,97276.45
2019-04-27T12:05:18.830Z,97272.31
2019-04-27T12:07:47.460Z,97284.91
2019-04-27T12:10:15.854Z,97279.73
2019-04-27T12:12:42.868Z,97272.06
2019-04-27T12:15:09.807Z,97276.96
2019-04-27T12:17:36.800Z,97277.68
2019-04-27T12:20:04.424Z,97274.72
2019-04-27T12:22:31.179Z,97270.33
2019-04-27T12:24:58.071Z,97268.39
2019-04-27T12:27:53.344Z,97266.45
2019-04-27T12:30:27.600Z,97260.09
2019-04-27T12:32:55.932Z,97256.17
2019-04-27T12:35:23.043Z,97247.45
2019-04-27T12:37:50.702Z,97249.91
2019-04-27T12:40:17.582Z,97256.16
2019-04-27T12:42:44.293Z,97258.66
2019-04-27T12:45:10.937Z,97250.28
2019-04-27T12:47:37.644Z,97255.62
2019-04-27T12:50:06.171Z,97265.83
2019-04-27T12:52:32.912Z,97266.73
2019-04-27T12:55:16.839Z,97277.00
2019-04-27T12:57:55.167Z,97284.50
2019-04-27T13:00:42.365Z,97277.67
2019-04-27T13:03:08.952Z,97277.61
2019-04-27T13:05:35.955Z,97271.03
2019-04-27T13:08:02.561Z,97273.08
2019-04-27T13:10:29.484Z,97259.43
2019-04-27T13:12:56.284Z,97268.18
2019-04-27T13:15:26.511Z,97270.72
2019-04-27T13:17:55.585Z,97264.89
2019-04-27T13:20:22.755Z,97265.97
2019-04-27T13:22:49.460Z,97260.88
2019-04-27T13:25:16.366Z,97261.75
2019-04-27T13:27:48.721Z,97261.05
2019-04-27T13:30:17.406Z,97265.37
2019-04-27T13:32:43.930Z,97266.22
2019-04-27T13:35:10.823Z,97257.87
2019-04-27T13:37:39.845Z,97256.69
2019-04-27T13:40:09.693Z,97261.30
2019-04-27T13:42:42.188Z,97245.29
2019-04-27T13:45:14.177Z,97239.63
2019-04-27T13:47:50.671Z,97230.25
2019-04-27T13:50:33.563Z,97233.08
2019-04-27T13:53:00.144Z,97231.74
2019-04-27T13:55:26.704Z,97222.92
2019-04-27T13:57:53.460Z,97217.92
2019-04-27T14:00:20.544Z,97211.91
2019-04-27T14:02:47.078Z,97214.83
2019-04-27T14:05:14.053Z,97199.92
2019-04-27T14:07:40.849Z,97201.43
2019-04-27T14:10:09.316Z,97193.02
2019-04-27T14:12:35.988Z,97203.18
2019-04-27T14:15:03.107Z,97200.66
2019-04-27T14:17:29.903Z,97197.14
2019-04-27T14:19:56.565Z,97191.46
2019-04-27T14:22:23.277Z,97194.26
2019-04-27T14:24:49.800Z,97194.40
2019-04-27T14:27:17.818Z,97186.66
2019-04-27T14:29:45.332Z,97176.44
2019-04-27T14:32:12.068Z,97192.55
2019-04-27T14:34:38.940Z,97205.66
2019-04-27T14:37:05.582Z,97203.09
2019-04-27T14:39:32.220Z,97199.19
2019-04-27T14:41:59.270Z,97201.59
2019-04-27T14:44:25.916Z,97198.56
2019-04-27T14:46:52.640Z,97191.30
2019-04-27T14:49:19.861Z,97194.61
2019-04-27T14:51:48.256Z,97183.56
2019-04-27T14:54:15.159Z,97191.36
2019-04-27T14:56:42.433Z,97189.88
2019-04-27T14:59:09.156Z,97185.38
2019-04-27T15:01:37.663Z,97175.72
2019-04-27T15:04:04.406Z,97175.33
2019-04-27T15:06:31.341Z,97162.95
2019-04-27T15:08:58.210Z,97170.56
2019-04-27T15:11:25.339Z,97165.37
2019-04-27T15:13:53.325Z,97161.02
2019-04-27T15:16:20.603Z,97158.72
2019-04-27T15:18:52.180Z,97162.18
2019-04-27T15:21:20.256Z,97161.84
2019-04-27T15:23:48.381Z,97173.54
2019-04-27T15:26:19.575Z,97173.39
2019-04-27T15:28:49.318Z,97164.30
2019-04-27T15:31:26.686Z,97163.66
2019-04-27T15:34:11.014Z,97169.47
2019-04-27T15:36:58.371Z,97162.02
2019-04-27T15:39:48.568Z,97163.32
2019-04-27T15:42:22.383Z,97165.11
2019-04-27T15:44:50.080Z,97173.39
2019-04-27T15:47:17.778Z,97169.28
2019-04-27T15:49:53.093Z,97179.76
2019-04-27T15:52:14.179Z,97170.49
2019-04-27T15:54:40.837Z,97171.63
2019-04-27T15:57:10.553Z,97177.92
2019-04-27T15:59:37.742Z,97177.13
2019-04-27T16:02:05.467Z,97176.48
2019-04-27T16:04:34.597Z,97175.98
2019-04-27T16:07:01.595Z,97177.19
2019-04-27T16:09:28.419Z,97165.83
2019-04-27T16:12:06.746Z,97176.85
2019-04-27T16:14:23.917Z,97170.90
2019-04-27T16:16:51.172Z,97164.06
2019-04-27T16:19:18.479Z,97170.27
2019-04-27T16:21:47.772Z,97170.73
2019-04-27T16:24:17.033Z,97170.80
2019-04-27T16:26:46.471Z,97170.70
2019-04-27T16:29:10.987Z,97173.02
2019-04-27T16:31:38.493Z,97174.88
2019-04-27T16:34:05.230Z,97180.70
2019-04-27T16:36:31.862Z,97176.91
2019-04-27T16:39:03.632Z,97183.33
2019-04-27T16:41:28.708Z,97174.39
2019-04-27T16:43:55.439Z,97183.85
2019-04-27T16:46:22.139Z,97174.42
2019-04-27T16:48:48.802Z,97173.84
2019-04-27T16:51:15.546Z,97177.08
2019-04-27T16:53:42.340Z,97184.23
2019-04-27T16:56:14.716Z,97173.40
2019-04-27T16:58:39.390Z,97176.77
2019-04-27T17:01:10.537Z,97177.89
2019-04-27T17:03:36.621Z,97166.50
2019-04-27T17:06:04.055Z,97165.94
2019-04-27T17:08:31.906Z,97167.06
2019-04-27T17:11:07.847Z,97164.39
2019-04-27T17:13:28.007Z,97162.22
2019-04-27T17:16:14.856Z,97166.39
2019-04-27T17:18:52.879Z,97165.75
2019-04-27T17:21:23.168Z,97164.60
2019-04-27T17:23:48.241Z,97160.11
2019-04-27T17:26:21.814Z,97165.40
2019-04-27T17:28:51.556Z,97164.23
2019-04-27T17:31:21.464Z,97166.54
2019-04-27T17:33:52.811Z,97170.15
2019-04-27T17:36:19.861Z,97161.62
2019-04-27T17:38:50.841Z,97164.55
2019-04-27T17:41:15.203Z,97167.34
2019-04-27T17:43:42.649Z,97162.81
2019-04-27T17:46:11.633Z,97176.11
2019-04-27T17:48:38.279Z,97175.45
2019-04-27T17:51:05.107Z,97177.62
2019-04-27T17:53:33.191Z,97177.62
2019-04-27T17:56:05.631Z,97184.58
2019-04-27T17:58:29.167Z,97184.27
2019-04-27T18:00:55.887Z,97187.06
2019-04-27T18:03:22.626Z,97193.39
2019-04-27T18:05:51.930Z,97191.86
2019-04-27T18:08:24.543Z,97193.09
2019-04-27T18:10:47.476Z,97198.67
2019-04-27T18:13:14.017Z,97198.98
2019-04-27T18:15:40.652Z,97194.61
2019-04-27T18:18:22.821Z,97195.70
2019-04-27T18:20:49.001Z,97214.84
2019-04-27T18:23:18.752Z,97270.56
2019-04-27T18:25:51.758Z,97299.03
2019-04-27T18:28:22.046Z,97300.98
2019-04-27T18:31:06.749Z,97308.45
2019-04-27T18:33:37.088Z,97313.83
2019-04-27T18:36:05.591Z,97316.94
2019-04-27T18:38:35.023Z,97320.02
2019-04-27T18:41:03.013Z,97328.81
2019-04-27T18:43:28.630Z,97330.39
2019-04-27T18:45:55.389Z,97344.58
2019-04-27T18:48:29.293Z,97352.23
2019-04-27T18:51:20.634Z,97362.04
2019-04-27T18:53:48.028Z,97366.73
2019-04-27T18:56:16.411Z,97369.56
2019-04-27T18:58:43.343Z,97369.94
2019-04-27T19:01:09.994Z,97387.37
2019-04-27T19:03:36.683Z,97387.14
2019-04-27T19:06:04.147Z,97384.24
2019-04-27T19:08:30.922Z,97392.43
2019-04-27T19:11:00.079Z,97402.50
2019-04-27T19:13:26.549Z,97394.08
2019-04-27T19:15:53.167Z,97398.41
2019-04-27T19:18:19.709Z,97403.88
2019-04-27T19:20:48.088Z,97401.20
2019-04-27T19:23:14.923Z,97388.97
2019-04-27T19:25:48.341Z,97380.33
2019-04-27T19:28:48.294Z,97412.64
2019-04-27T19:31:21.308Z,97422.45
2019-04-27T19:33:48.232Z,97423.54
2019-04-27T19:36:14.902Z,97422.75
2019-04-27T19:38:41.976Z,97418.22
2019-04-27T19:41:09.944Z,97425.97
2019-04-27T19:43:38.378Z,97444.08
2019-04-27T19:46:05.167Z,97434.01
2019-04-27T19:48:34.867Z,97434.29
2019-04-27T19:51:01.967Z,97443.78
2019-04-27T19:53:28.693Z,97445.73
2019-04-27T19:56:01.286Z,97450.16
2019-04-27T19:58:29.330Z,97459.43
2019-04-27T20:01:11.152Z,97465.45
2019-04-27T20:03:35.475Z,97461.38
2019-04-27T20:06:02.146Z,97468.72
2019-04-27T20:08:31.059Z,97465.80
2019-04-27T20:10:57.704Z,97476.41
2019-04-27T20:13:24.379Z,97479.12
2019-04-27T20:15:51.290Z,97480.48
2019-04-27T20:18:18.048Z,97485.66
2019-04-27T20:23:24.887Z,97475.09
2019-04-27T20:25:51.595Z,97478.94
2019-04-27T20:28:18.732Z,97484.39
2019-04-27T20:30:45.663Z,97504.47
2019-04-27T20:33:12.660Z,97513.95
2019-04-27T20:35:40.788Z,97517.52
2019-04-27T20:38:10.879Z,97529.73
2019-04-27T20:40:37.494Z,97522.14
2019-04-27T20:43:04.383Z,97518.61
2019-04-27T20:45:32.717Z,97518.07
2019-04-27T20:48:01.121Z,97520.28
2019-04-27T20:50:27.876Z,97515.14
2019-04-27T20:52:56.123Z,97519.21
2019-04-27T20:55:22.862Z,97518.40
2019-04-27T20:57:59.726Z,97521.93
2019-04-27T21:00:21.924Z,97520.03
2019-04-27T21:03:11.995Z,97524.64
2019-04-27T21:05:46.603Z,97523.28
2019-04-27T21:08:13.322Z,97531.66
2019-04-27T21:10:41.270Z,97532.75
2019-04-27T21:13:08.526Z,97527.91
2019-04-27T21:15:35.234Z,97530.61
2019-04-27T21:18:02.025Z,97523.02
2019-04-27T21:20:28.715Z,97525.73
2019-04-27T21:22:55.425Z,97525.47
2019-04-27T21:25:22.232Z,97529.80
2019-04-27T21:27:48.969Z,97529.53
2019-04-27T21:30:15.940Z,97530.89
2019-04-27T21:32:42.913Z,97526.84
2019-04-27T21:35:10.928Z,97522.23
2019-04-27T21:37:37.758Z,97514.38
2019-04-27T21:40:16.385Z,97511.13
2019-04-27T21:42:43.066Z,97509.23
2019-04-27T21:45:11.257Z,97507.33
2019-04-27T21:47:37.999Z,97504.36
2019-04-27T21:50:04.886Z,97490.00
2019-04-27T21:52:33.587Z,97491.36
2019-04-27T21:55:01.457Z,97491.60
2019-04-27T21:57:28.340Z,97502.98
2019-04-27T21:59:55.447Z,97514.38
2019-04-27T22:02:22.242Z,97534.41
2019-04-27T22:04:48.901Z,97548.47
2019-04-27T22:07:15.572Z,97566.73
2019-04-27T22:09:43.307Z,97570.78
2019-04-27T22:12:11.223Z,97573.73
2019-04-27T22:14:38.043Z,97570.41
2019-04-27T22:17:04.779Z,97570.94
2019-04-27T22:19:31.594Z,97578.27
2019-04-27T22:22:00.495Z,97576.06
2019-04-27T22:24:31.157Z,97579.80
2019-04-27T22:26:57.917Z,97574.67
2019-04-27T22:29:24.667Z,97576.56
2019-04-27T22:31:51.732Z,97580.63
2019-04-27T22:34:18.835Z,97582.27
2019-04-27T22:36:45.473Z,97584.12
2019-04-27T22:39:33.788Z,97581.93
2019-04-27T22:42:23.811Z,97579.78
2019-04-27T22:44:54.204Z,97588.41
2019-04-27T22:47:21.522Z,97596.27
2019-04-27T22:49:48.463Z,97593.82
2019-04-27T22:52:15.211Z,97598.41
2019-04-27T22:54:42.188Z,97591.61
2019-04-27T22:57:16.817Z,97602.93
2019-04-27T22:59:57.019Z,97605.29
2019-04-27T23:02:32.732Z,97609.15
2019-04-27T23:05:01.953Z,97607.54
2019-04-27T23:07:28.969Z,97609.73
2019-04-27T23:09:55.628Z,97612.97
2019-04-27T23:12:23.051Z,97617.30
2019-04-27T23:14:50.296Z,97624.58
2019-04-27T23:17:46.779Z,97627.26
2019-04-27T23:20:13.432Z,97628.61
2019-04-27T23:22:40.143Z,97625.33
2019-04-27T23:25:07.191Z,97633.17
2019-04-27T23:27:34.063Z,97638.03
2019-04-27T23:30:01.388Z,97639.68
2019-04-27T23:32:34.921Z,97639.64
2019-04-27T23:35:01.570Z,97642.34
2019-04-27T23:37:28.272Z,97638.52
2019-04-27T23:39:54.907Z,97633.65
2019-04-27T23:42:21.740Z,97634.47
2019-04-27T23:44:48.375Z,97639.91
2019-04-27T23:47:15.281Z,97638.05
2019-04-27T23:49:41.813Z,97636.98
2019-04-27T23:52:13.826Z,97628.03
2019-04-27T23:54:42.698Z,97619.94
2019-04-27T23:57:09.065Z,97615.89
2019-04-27T23:59:35.701Z,97623.73
